Marigola — IBEL — position and weather

sailwx.info

Track history (hours):
 
Tides and Currents Weather Stations Pressure Air Temp Water Temp Dewpoint Dewpoint Depression Visibility Wind Speed Wind Dir Waves Ship Positions

Marigola

Last reported at 2015-Apr-03 14:26 UTC. Time now 2015-Apr-25 04:13 UTC.
Position N 27°38' W 082°39'.
Warning: this ship's position is 21 days out of date.

Length 145 m; draft 7.2 m.

Type: Ship (hazmat cat A). MMSI: 247567000.

Date/timePositionNaut miles runAvg speedWind from/ knotsBaromVisibWave heightAir tempDewpointWater temp
2015-Apr-03 14:26N 27°38' W 082°39'1111.9
2015-Apr-03 13:30N 27°47' W 082°31'9 9.4
2015-Apr-03 12:33N 27°54' W 082°26'1 1.0
2015-Apr-03 11:32N 27°54' W 082°25'0 0.0
2015-Apr-03 10:32N 27°54' W 082°25'0 0.0
2015-Apr-03 09:32N 27°54' W 082°25'0 0.0
2015-Apr-03 08:32N 27°54' W 082°25'0 0.0
2015-Apr-03 07:32N 27°54' W 082°25'0 0.0
2015-Apr-03 06:32N 27°54' W 082°25'0 0.0
2015-Apr-03 05:32N 27°54' W 082°25'0 0.0
2015-Apr-03 04:32N 27°54' W 082°25'0 0.0
2015-Apr-03 03:26N 27°54' W 082°25'0 0.0
2015-Apr-03 02:32N 27°54' W 082°25'0 0.0
2015-Apr-03 01:26N 27°54' W 082°25'0 0.0
2015-Apr-03 00:32N 27°54' W 082°25'0 0.0
2015-Apr-02 23:32N 27°54' W 082°25'0 0.0
2015-Apr-02 22:32N 27°54' W 082°25'0 0.0
2015-Apr-02 21:32N 27°54' W 082°25'0 0.0
2015-Apr-02 20:32N 27°54' W 082°25'0 0.0
2015-Apr-02 19:32N 27°54' W 082°25'0 0.0
2015-Apr-02 18:32N 27°54' W 082°25'0 0.0
2015-Apr-02 17:29N 27°54' W 082°25'1 0.9
2015-Apr-02 16:33N 27°54' W 082°26'7 7.3
2015-Apr-02 15:33N 27°48' W 082°29'1412.5
2015-Apr-02 14:27N 27°37' W 082°40'3910.1
2015-Apr-02 10:33N 27°04' W 083°04'1313.3
2015-Apr-02 09:34N 26°51' W 083°05'1413.4
2015-Apr-02 08:31N 26°37' W 083°06'1313.3
2015-Apr-02 07:32N 26°24' W 083°07'1513.3
2015-Apr-02 06:23N 26°09' W 083°08'1113.3
2015-Apr-02 05:33N 25°58' W 083°09'4 3.7
2015-Apr-02 04:29N 25°56' W 083°12'1010.5
2015-Apr-02 03:34N 25°47' W 083°09'2 2.1
2015-Apr-02 02:34N 25°45' W 083°10'9 9.0
2015-Apr-02 01:33N 25°44' W 083°20'10 9.1
2015-Apr-02 00:28N 25°45' W 083°09'1213.5
2015-Apr-01 23:33N 25°32' W 083°10'1513.5
2015-Apr-01 22:28N 25°18' W 083°11'  
Track history (hours):
 
Tides and Currents Weather Stations Pressure Air Temp Water Temp Dewpoint Dewpoint Depression Visibility Wind Speed Wind Dir Waves Ship Positions

Marigola

Last reported at 2015-Apr-03 14:26 UTC. Time now 2015-Apr-25 04:13 UTC.
Position N 27°38' W 082°39'.
Warning: this ship's position is 21 days out of date.

Length 145 m; draft 7.2 m.

Type: Ship (hazmat cat A). MMSI: 247567000.

Date/timePositionNaut miles runAvg speedWind from/ knotsBaromVisibWave heightAir tempDewpointWater temp
2015-Apr-03 14:26N 27°38' W 082°39'1111.9
2015-Apr-03 13:30N 27°47' W 082°31'9 9.4
2015-Apr-03 12:33N 27°54' W 082°26'1 1.0
2015-Apr-03 11:32N 27°54' W 082°25'0 0.0
2015-Apr-03 10:32N 27°54' W 082°25'0 0.0
2015-Apr-03 09:32N 27°54' W 082°25'0 0.0
2015-Apr-03 08:32N 27°54' W 082°25'0 0.0
2015-Apr-03 07:32N 27°54' W 082°25'0 0.0
2015-Apr-03 06:32N 27°54' W 082°25'0 0.0
2015-Apr-03 05:32N 27°54' W 082°25'0 0.0
2015-Apr-03 04:32N 27°54' W 082°25'0 0.0
2015-Apr-03 03:26N 27°54' W 082°25'0 0.0
2015-Apr-03 02:32N 27°54' W 082°25'0 0.0
2015-Apr-03 01:26N 27°54' W 082°25'0 0.0
2015-Apr-03 00:32N 27°54' W 082°25'0 0.0
2015-Apr-02 23:32N 27°54' W 082°25'0 0.0
2015-Apr-02 22:32N 27°54' W 082°25'0 0.0
2015-Apr-02 21:32N 27°54' W 082°25'0 0.0
2015-Apr-02 20:32N 27°54' W 082°25'0 0.0
2015-Apr-02 19:32N 27°54' W 082°25'0 0.0
2015-Apr-02 18:32N 27°54' W 082°25'0 0.0
2015-Apr-02 17:29N 27°54' W 082°25'1 0.9
2015-Apr-02 16:33N 27°54' W 082°26'7 7.3
2015-Apr-02 15:33N 27°48' W 082°29'1412.5
2015-Apr-02 14:27N 27°37' W 082°40'3910.1
2015-Apr-02 10:33N 27°04' W 083°04'1313.3
2015-Apr-02 09:34N 26°51' W 083°05'1413.4
2015-Apr-02 08:31N 26°37' W 083°06'1313.3
2015-Apr-02 07:32N 26°24' W 083°07'1513.3
2015-Apr-02 06:23N 26°09' W 083°08'1113.3
2015-Apr-02 05:33N 25°58' W 083°09'4 3.7
2015-Apr-02 04:29N 25°56' W 083°12'1010.5
2015-Apr-02 03:34N 25°47' W 083°09'2 2.1
2015-Apr-02 02:34N 25°45' W 083°10'9 9.0
2015-Apr-02 01:33N 25°44' W 083°20'10 9.1
2015-Apr-02 00:28N 25°45' W 083°09'1213.5
2015-Apr-01 23:33N 25°32' W 083°10'1513.5
2015-Apr-01 22:28N 25°18' W 083°11'  

Dump ship's entire track history